createdAt,value
2018-12-25T00:02:46.577Z,18.97
2018-12-25T00:05:34.975Z,19.17
2018-12-25T00:11:16.559Z,19.37
2018-12-25T00:14:06.169Z,18.13
2018-12-25T00:16:54.449Z,18.50
2018-12-25T00:19:42.489Z,18.93
2018-12-25T00:22:30.565Z,18.57
2018-12-25T00:25:19.017Z,18.50
2018-12-25T00:28:07.069Z,18.47
2018-12-25T00:30:55.123Z,18.20
2018-12-25T00:36:36.843Z,17.70
2018-12-25T00:39:07.317Z,18.80
2018-12-25T00:41:55.354Z,18.30
2018-12-25T00:44:43.436Z,17.87
2018-12-25T00:47:31.486Z,18.30
2018-12-25T00:50:19.581Z,19.77
2018-12-25T00:53:07.845Z,18.60
2018-12-25T00:55:55.928Z,18.00
2018-12-25T00:58:43.970Z,18.63
2018-12-25T01:01:32.050Z,19.43
2018-12-25T01:04:20.153Z,18.33
2018-12-25T01:07:08.208Z,18.57
2018-12-25T01:09:56.565Z,20.13
2018-12-25T01:15:51.606Z,18.10
2018-12-25T01:18:39.701Z,19.33
2018-12-25T01:21:27.786Z,17.97
2018-12-25T01:24:15.829Z,18.83
2018-12-25T01:27:03.761Z,18.33
2018-12-25T01:29:51.842Z,18.93
2018-12-25T01:32:40.227Z,19.10
2018-12-25T01:35:28.165Z,18.80
2018-12-25T01:38:16.201Z,20.47
2018-12-25T01:41:04.286Z,20.20
2018-12-25T01:46:46.673Z,19.80
2018-12-25T01:49:35.039Z,20.27
2018-12-25T01:52:23.162Z,20.60
2018-12-25T01:55:11.246Z,19.60
2018-12-25T01:57:59.330Z,21.00
2018-12-25T02:00:47.457Z,19.73
2018-12-25T02:03:35.535Z,19.67
2018-12-25T02:06:23.885Z,19.90
2018-12-25T02:09:11.922Z,20.47
2018-12-25T02:11:59.877Z,20.53
2018-12-25T02:14:47.852Z,19.87
2018-12-25T02:17:35.934Z,19.40
2018-12-25T02:20:44.666Z,20.33
2018-12-25T02:23:32.971Z,21.40
2018-12-25T02:29:15.118Z,19.93
2018-12-25T02:35:10.607Z,19.83
2018-12-25T02:37:58.648Z,21.83
2018-12-25T02:40:46.744Z,19.67
2018-12-25T02:43:34.675Z,20.00
2018-12-25T02:46:03.647Z,19.67
2018-12-25T02:48:51.732Z,21.33
2018-12-25T02:51:39.631Z,21.20
2018-12-25T02:54:27.709Z,19.63
2018-12-25T02:57:15.749Z,20.20
2018-12-25T03:00:03.682Z,20.57
2018-12-25T03:02:51.721Z,20.60
2018-12-25T03:05:39.694Z,20.97
2018-12-25T03:08:27.597Z,19.20
2018-12-25T03:11:15.683Z,19.10
2018-12-25T03:14:03.721Z,20.23
2018-12-25T03:16:51.795Z,18.73
2018-12-25T03:19:39.692Z,23.83
2018-12-25T03:22:27.774Z,19.87
2018-12-25T03:25:15.669Z,21.17
2018-12-25T03:28:03.930Z,21.00
2018-12-25T03:33:59.061Z,27.40
2018-12-25T03:39:40.697Z,20.63
2018-12-25T03:42:28.773Z,23.30
2018-12-25T03:45:16.673Z,25.63
2018-12-25T03:48:04.750Z,20.60
2018-12-25T03:50:53.123Z,19.70
2018-12-25T03:53:41.236Z,21.33
2018-12-25T03:56:29.273Z,20.30
2018-12-25T03:59:17.222Z,19.70
2018-12-25T04:02:05.338Z,22.13
2018-12-25T04:04:53.411Z,19.70
2018-12-25T04:07:41.480Z,19.97
2018-12-25T04:10:29.570Z,20.67
2018-12-25T04:13:17.469Z,20.37
2018-12-25T04:16:05.565Z,20.70
2018-12-25T04:18:53.657Z,18.90
2018-12-25T04:21:41.706Z,20.43
2018-12-25T04:24:29.790Z,19.67
2018-12-25T04:27:17.862Z,19.67
2018-12-25T04:30:05.939Z,18.00
2018-12-25T04:32:54.001Z,19.20
2018-12-25T04:35:42.103Z,19.07
2018-12-25T04:38:30.173Z,18.93
2018-12-25T04:41:18.245Z,20.20
2018-12-25T04:44:06.279Z,18.97
2018-12-25T04:46:54.351Z,18.40
2018-12-25T04:49:42.773Z,19.23
2018-12-25T04:52:30.802Z,18.27
2018-12-25T04:55:18.887Z,18.73
2018-12-25T04:58:06.988Z,19.50
2018-12-25T05:00:55.023Z,19.50
2018-12-25T05:03:43.102Z,18.83
2018-12-25T05:06:31.153Z,19.33
2018-12-25T05:09:00.060Z,20.53
2018-12-25T05:11:29.066Z,18.63
2018-12-25T05:14:17.101Z,21.67
2018-12-25T05:17:05.182Z,19.47
2018-12-25T05:19:53.222Z,22.40
2018-12-25T05:22:22.217Z,18.20
2018-12-25T05:25:10.293Z,19.50
2018-12-25T05:27:58.461Z,19.00
2018-12-25T05:30:46.501Z,20.17
2018-12-25T05:33:34.956Z,20.20
2018-12-25T05:36:23.045Z,18.77
2018-12-25T05:39:11.577Z,19.50
2018-12-25T05:41:59.620Z,21.17
2018-12-25T05:44:28.869Z,20.63
2018-12-25T05:47:17.057Z,19.00
2018-12-25T05:50:05.115Z,20.77
2018-12-25T05:52:53.085Z,19.07
2018-12-25T05:55:41.077Z,19.03
2018-12-25T05:58:29.130Z,19.33
2018-12-25T06:01:17.069Z,19.50
2018-12-25T06:04:05.105Z,19.83
2018-12-25T06:06:53.177Z,18.97
2018-12-25T06:09:41.194Z,18.67
2018-12-25T06:12:29.285Z,18.77
2018-12-25T06:18:24.494Z,19.43
2018-12-25T06:21:12.400Z,20.20
2018-12-25T06:24:00.505Z,19.63
2018-12-25T06:26:48.404Z,18.73
2018-12-25T06:29:36.486Z,18.70
2018-12-25T06:32:24.095Z,19.33
2018-12-25T06:35:12.193Z,17.23
2018-12-25T06:38:00.250Z,19.37
2018-12-25T06:40:29.159Z,19.30
2018-12-25T06:43:17.055Z,18.73
2018-12-25T06:46:05.129Z,19.20
2018-12-25T06:52:00.561Z,17.57
2018-12-25T06:54:48.861Z,19.27
2018-12-25T06:57:37.102Z,19.90
2018-12-25T07:00:07.134Z,18.70
2018-12-25T07:02:56.125Z,18.50
2018-12-25T07:05:44.063Z,17.33
2018-12-25T07:08:32.001Z,18.40
2018-12-25T07:11:20.106Z,18.37
2018-12-25T07:14:08.178Z,18.80
2018-12-25T07:16:56.211Z,18.90
2018-12-25T07:19:44.425Z,18.07
2018-12-25T07:22:32.820Z,18.97
2018-12-25T07:25:20.726Z,19.07
2018-12-25T07:28:08.807Z,18.93
2018-12-25T07:30:56.876Z,18.97
2018-12-25T07:33:45.010Z,18.47
2018-12-25T07:36:33.047Z,18.97
2018-12-25T07:42:14.637Z,18.53
2018-12-25T07:45:02.733Z,18.83
2018-12-25T07:47:50.769Z,20.63
2018-12-25T07:50:38.847Z,20.70
2018-12-25T07:53:26.794Z,18.23
2018-12-25T07:56:14.834Z,19.47
2018-12-25T07:59:02.906Z,20.90
2018-12-25T08:04:58.073Z,19.50
2018-12-25T08:07:46.142Z,20.63
2018-12-25T08:10:15.403Z,20.83
2018-12-25T08:13:03.438Z,20.20
2018-12-25T08:15:51.538Z,20.43
2018-12-25T08:18:40.249Z,22.07
2018-12-25T08:21:29.763Z,20.30
2018-12-25T08:24:17.959Z,25.00
2018-12-25T08:27:06.066Z,20.33
2018-12-25T08:29:53.944Z,19.73
2018-12-25T08:32:42.021Z,19.30
2018-12-25T08:38:37.222Z,19.97
2018-12-25T08:41:25.260Z,19.23
2018-12-25T08:44:13.325Z,19.80
2018-12-25T08:49:54.943Z,23.97
2018-12-25T08:52:43.358Z,19.37
2018-12-25T08:55:31.673Z,18.57
2018-12-25T08:58:19.615Z,18.90
2018-12-25T09:04:14.822Z,18.90
2018-12-25T09:07:02.858Z,20.20
2018-12-25T09:09:31.794Z,17.57
2018-12-25T09:12:19.831Z,19.47
2018-12-25T09:15:07.775Z,19.37
2018-12-25T09:17:56.207Z,18.37
2018-12-25T09:23:51.678Z,19.00
2018-12-25T09:26:20.550Z,17.67
2018-12-25T09:29:08.660Z,18.03
2018-12-25T09:35:04.290Z,16.40
2018-12-25T09:37:52.361Z,15.00
2018-12-25T09:40:40.306Z,16.80
2018-12-25T09:43:28.204Z,16.77
2018-12-25T09:46:16.295Z,17.77
2018-12-25T09:49:04.205Z,18.00
2018-12-25T09:51:54.638Z,16.97
2018-12-25T09:54:41.995Z,15.93
2018-12-25T09:57:29.899Z,16.27
2018-12-25T10:00:17.993Z,15.53
2018-12-25T10:03:06.028Z,15.47
2018-12-25T10:05:54.097Z,16.33
2018-12-25T10:08:42.142Z,16.03
2018-12-25T10:11:30.158Z,15.63
2018-12-25T10:14:18.534Z,15.37
2018-12-25T10:17:06.570Z,14.90
2018-12-25T10:19:54.511Z,14.70
2018-12-25T10:22:42.555Z,14.27
2018-12-25T10:25:30.630Z,16.10
2018-12-25T10:28:18.757Z,16.00
2018-12-25T10:31:06.841Z,14.43
2018-12-25T10:33:54.902Z,15.90
2018-12-25T10:36:42.846Z,16.20
2018-12-25T10:39:30.886Z,16.87
2018-12-25T10:42:18.978Z,14.90
2018-12-25T10:45:06.913Z,16.27
2018-12-25T10:47:55.043Z,15.33
2018-12-25T10:50:43.070Z,15.20
2018-12-25T10:53:31.146Z,16.17
2018-12-25T10:56:19.218Z,15.60
2018-12-25T10:59:07.258Z,14.77
2018-12-25T11:01:55.990Z,15.37
2018-12-25T11:07:51.186Z,15.63
2018-12-25T11:10:39.239Z,16.33
2018-12-25T11:16:20.902Z,16.50
2018-12-25T11:19:08.977Z,15.97
2018-12-25T11:21:56.924Z,14.77
2018-12-25T11:27:52.441Z,14.60
2018-12-25T11:30:40.557Z,15.60
2018-12-25T11:33:28.647Z,15.50
2018-12-25T11:36:16.682Z,16.70
2018-12-25T11:39:05.469Z,15.03
2018-12-25T11:41:53.507Z,16.37
2018-12-25T11:44:41.762Z,14.20
2018-12-25T11:47:29.801Z,15.33
2018-12-25T11:50:18.007Z,15.03
2018-12-25T11:53:06.143Z,14.97
2018-12-25T11:59:01.336Z,14.20
2018-12-25T12:01:49.363Z,13.70
2018-12-25T12:04:37.299Z,16.70
2018-12-25T12:07:25.350Z,14.87
2018-12-25T12:10:13.427Z,14.60
2018-12-25T12:13:01.493Z,14.27
2018-12-25T12:15:49.546Z,15.43
2018-12-25T12:18:37.650Z,15.63
2018-12-25T12:24:33.259Z,14.73
2018-12-25T12:27:21.328Z,16.23
2018-12-25T12:30:09.397Z,16.27
2018-12-25T12:32:57.433Z,15.20
2018-12-25T12:35:45.515Z,14.97
2018-12-25T12:38:33.465Z,15.60
2018-12-25T12:41:21.517Z,15.43
2018-12-25T12:44:09.605Z,14.67
2018-12-25T12:46:57.701Z,16.23
2018-12-25T12:49:45.634Z,16.37
2018-12-25T12:55:40.814Z,16.23
2018-12-25T12:58:28.876Z,16.27
2018-12-25T13:01:16.911Z,15.53
2018-12-25T13:04:04.834Z,15.23
2018-12-25T13:06:52.930Z,14.40
2018-12-25T13:09:40.843Z,15.97
2018-12-25T13:12:28.932Z,15.50
2018-12-25T13:18:24.107Z,16.17
2018-12-25T13:20:53.089Z,16.07
2018-12-25T13:23:41.181Z,16.53
2018-12-25T13:26:29.254Z,15.00
2018-12-25T13:29:17.717Z,15.60
2018-12-25T13:32:05.793Z,16.67
2018-12-25T13:34:54.228Z,15.40
2018-12-25T13:40:49.390Z,14.03
2018-12-25T13:43:37.470Z,13.97
2018-12-25T13:46:25.556Z,15.00
2018-12-25T13:49:13.812Z,14.20
2018-12-25T13:52:01.896Z,15.97
2018-12-25T13:54:49.792Z,17.60
2018-12-25T13:57:37.858Z,15.17
2018-12-25T14:00:06.905Z,17.10
2018-12-25T14:02:35.925Z,15.20
2018-12-25T14:05:23.907Z,15.47
2018-12-25T14:08:11.858Z,14.93
2018-12-25T14:10:59.902Z,16.87
2018-12-25T14:13:48.338Z,17.13
2018-12-25T14:16:36.415Z,17.17
2018-12-25T14:22:31.611Z,16.80
2018-12-25T14:25:19.694Z,17.63
2018-12-25T14:28:07.766Z,18.63
2018-12-25T14:34:03.191Z,19.87
2018-12-25T14:36:51.243Z,22.27
2018-12-25T14:39:39.329Z,19.33
2018-12-25T14:45:34.507Z,19.83
2018-12-25T14:48:22.560Z,19.37
2018-12-25T14:51:10.648Z,18.40
2018-12-25T14:59:59.673Z,20.37
2018-12-25T15:02:47.757Z,19.97
2018-12-25T15:08:42.942Z,20.93
2018-12-25T15:11:31.016Z,21.10
2018-12-25T15:14:19.461Z,20.93
2018-12-25T15:17:07.485Z,27.80
2018-12-25T15:19:55.589Z,22.60
2018-12-25T15:22:43.559Z,25.67
2018-12-25T15:25:31.946Z,24.43
2018-12-25T15:28:20.037Z,20.73
2018-12-25T15:34:15.238Z,20.67
2018-12-25T15:37:03.386Z,21.90
2018-12-25T15:39:51.424Z,19.57
2018-12-25T15:42:39.510Z,20.10
2018-12-25T15:45:28.151Z,24.20
2018-12-25T15:48:16.282Z,21.73
2018-12-25T15:51:04.577Z,21.50
2018-12-25T15:53:52.518Z,18.80
2018-12-25T15:56:40.601Z,29.90
2018-12-25T15:59:28.732Z,19.53
2018-12-25T16:02:16.705Z,20.73
2018-12-25T16:05:04.718Z,20.60
2018-12-25T16:07:52.765Z,21.23
2018-12-25T16:10:40.851Z,20.00
2018-12-25T16:13:28.894Z,21.70
2018-12-25T16:16:17.217Z,20.37
2018-12-25T16:19:05.557Z,19.73
2018-12-25T16:21:53.587Z,21.63
2018-12-25T16:27:36.807Z,20.70
2018-12-25T16:30:07.662Z,20.80
2018-12-25T16:32:55.811Z,21.70
2018-12-25T16:35:43.709Z,20.80
2018-12-25T16:38:31.813Z,36.37
2018-12-25T16:41:19.902Z,22.17
2018-12-25T16:44:07.945Z,20.03
2018-12-25T16:46:56.025Z,22.17
2018-12-25T16:49:36.661Z,20.50
2018-12-25T16:52:24.754Z,22.73
2018-12-25T16:58:19.951Z,19.60
2018-12-25T17:01:08.339Z,23.07
2018-12-25T17:03:56.335Z,22.37
2018-12-25T17:06:44.414Z,23.70
2018-12-25T17:09:32.498Z,21.03
2018-12-25T17:12:20.575Z,21.10
2018-12-25T17:15:08.514Z,25.07
2018-12-25T17:17:56.598Z,21.73
2018-12-25T17:20:44.639Z,21.60
2018-12-25T17:23:32.725Z,22.30
2018-12-25T17:26:20.826Z,23.43
2018-12-25T17:32:02.937Z,21.93
2018-12-25T17:34:51.399Z,24.70
2018-12-25T17:37:39.875Z,21.00
2018-12-25T17:40:27.939Z,20.67
2018-12-25T17:43:15.978Z,23.57
2018-12-25T17:46:04.170Z,20.00
2018-12-25T17:48:33.070Z,20.87
2018-12-25T17:51:21.121Z,21.63
2018-12-25T17:57:02.456Z,20.57
2018-12-25T17:59:50.530Z,23.23
2018-12-25T18:02:38.961Z,21.67
2018-12-25T18:08:34.149Z,21.97
2018-12-25T18:11:22.594Z,26.20
2018-12-25T18:17:18.971Z,21.07
2018-12-25T18:20:07.618Z,21.93
2018-12-25T18:22:55.518Z,21.37
2018-12-25T18:25:43.675Z,22.07
2018-12-25T18:28:32.059Z,27.23
2018-12-25T18:31:20.149Z,22.13
2018-12-25T18:34:08.182Z,21.77
2018-12-25T18:36:56.125Z,22.10
2018-12-25T18:39:44.166Z,23.07
2018-12-25T18:42:32.314Z,27.23
2018-12-25T18:45:20.523Z,22.90
2018-12-25T18:48:08.741Z,23.17
2018-12-25T18:50:56.852Z,34.90
2018-12-25T18:53:25.829Z,26.17
2018-12-25T18:56:14.023Z,21.27
2018-12-25T18:59:02.071Z,21.83
2018-12-25T19:01:50.147Z,21.93
2018-12-25T19:04:38.128Z,20.63
2018-12-25T19:07:26.090Z,22.00
2018-12-25T19:10:14.186Z,21.00
2018-12-25T19:16:10.445Z,20.80
2018-12-25T19:18:58.839Z,22.50
2018-12-25T19:21:46.740Z,20.03
2018-12-25T19:24:36.372Z,21.80
2018-12-25T19:30:31.930Z,22.17
2018-12-25T19:36:27.151Z,20.90
2018-12-25T19:39:15.563Z,22.33
2018-12-25T19:42:03.523Z,21.63
2018-12-25T19:44:51.528Z,21.10
2018-12-25T19:47:39.621Z,25.13
2018-12-25T19:50:27.639Z,20.23
2018-12-25T19:53:27.770Z,22.47
2018-12-25T19:56:05.799Z,34.47
2018-12-25T19:58:34.834Z,20.70
2018-12-25T20:01:22.970Z,20.10
2018-12-25T20:04:16.526Z,21.83
2018-12-25T20:07:23.712Z,21.53
2018-12-25T20:13:30.783Z,23.60
2018-12-25T20:16:37.929Z,23.70
2018-12-25T20:19:45.143Z,22.20
2018-12-25T20:22:52.286Z,22.57
2018-12-25T20:25:59.506Z,22.67
2018-12-25T20:29:04.591Z,22.90
2018-12-25T20:32:11.839Z,21.07
2018-12-25T20:35:19.030Z,22.03
2018-12-25T20:42:00.515Z,21.50
2018-12-25T20:45:07.698Z,23.60
2018-12-25T20:48:14.885Z,21.30
2018-12-25T20:51:22.111Z,21.77
2018-12-25T20:54:29.299Z,20.57
2018-12-25T20:57:36.472Z,22.70
2018-12-25T21:00:43.749Z,21.23
2018-12-25T21:07:29.612Z,21.33
2018-12-25T21:10:36.749Z,19.83
2018-12-25T21:13:43.931Z,20.10
2018-12-25T21:16:51.086Z,20.73
2018-12-25T21:19:58.280Z,22.37
2018-12-25T21:23:05.458Z,21.47
2018-12-25T21:26:12.641Z,21.63
2018-12-25T21:28:41.756Z,21.87
2018-12-25T21:34:58.758Z,21.13
2018-12-25T21:37:46.752Z,22.23
2018-12-25T21:46:06.102Z,22.43
2018-12-25T21:48:54.138Z,22.20
2018-12-25T21:52:02.631Z,22.93
2018-12-25T21:54:50.987Z,22.87
2018-12-25T21:57:20.009Z,21.90
2018-12-25T21:59:49.070Z,22.63
2018-12-25T22:02:37.167Z,23.47
2018-12-25T22:05:25.394Z,22.50
2018-12-25T22:08:13.479Z,22.70
2018-12-25T22:11:01.551Z,24.27
2018-12-25T22:13:49.965Z,23.63
2018-12-25T22:16:38.081Z,26.10
2018-12-25T22:19:26.405Z,22.47
2018-12-25T22:25:08.459Z,25.90
2018-12-25T22:27:56.546Z,26.03
2018-12-25T22:30:44.581Z,26.30
2018-12-25T22:33:32.667Z,26.87
2018-12-25T22:36:20.737Z,29.73
2018-12-25T22:39:08.779Z,31.13
2018-12-25T22:41:58.624Z,29.20
2018-12-25T22:44:46.607Z,30.53
2018-12-25T22:47:34.602Z,30.97
2018-12-25T22:50:22.752Z,34.50
2018-12-25T22:56:17.887Z,34.63
2018-12-25T22:59:05.981Z,36.23
2018-12-25T23:01:54.069Z,31.00
2018-12-25T23:07:49.187Z,31.60
2018-12-25T23:10:37.285Z,30.73
2018-12-25T23:13:25.299Z,29.33
2018-12-25T23:19:20.481Z,31.03
2018-12-25T23:22:08.784Z,30.57
2018-12-25T23:24:56.704Z,28.50
2018-12-25T23:27:44.651Z,29.27
2018-12-25T23:30:32.700Z,28.27
2018-12-25T23:35:54.866Z,28.10
2018-12-25T23:41:50.051Z,29.93
2018-12-25T23:44:38.137Z,27.80
2018-12-25T23:47:26.242Z,30.13
2018-12-25T23:50:14.286Z,29.07
2018-12-25T23:53:02.493Z,28.63
2018-12-25T23:55:53.048Z,27.80
2018-12-25T23:58:41.999Z,27.30
